createdAt,value
2023-04-16T00:00:00.728Z,1.40
2023-04-16T00:02:29.601Z,1.10
2023-04-16T00:04:58.330Z,1.10
2023-04-16T00:07:26.829Z,1.60
2023-04-16T00:09:55.734Z,1.30
2023-04-16T00:12:25.770Z,1.40
2023-04-16T00:14:54.390Z,1.40
2023-04-16T00:17:22.894Z,1.43
2023-04-16T00:19:51.521Z,1.43
2023-04-16T00:22:20.104Z,1.40
2023-04-16T00:24:48.669Z,1.50
2023-04-16T00:27:17.395Z,1.30
2023-04-16T00:29:47.370Z,1.27
2023-04-16T00:32:16.193Z,1.67
2023-04-16T00:34:44.774Z,1.43
2023-04-16T00:37:13.450Z,1.50
2023-04-16T00:39:42.177Z,1.80
2023-04-16T00:42:10.854Z,1.70
2023-04-16T00:44:39.398Z,1.60
2023-04-16T00:47:10.345Z,1.30
2023-04-16T00:49:39.230Z,1.23
2023-04-16T00:52:08.061Z,1.90
2023-04-16T00:54:36.895Z,1.53
2023-04-16T00:57:05.810Z,1.30
2023-04-16T00:59:34.334Z,1.60
2023-04-16T01:02:03.156Z,1.70
2023-04-16T01:04:34.051Z,1.83
2023-04-16T01:07:02.852Z,1.33
2023-04-16T01:09:31.535Z,1.23
2023-04-16T01:12:00.167Z,1.73
2023-04-16T01:14:28.827Z,1.20
2023-04-16T01:16:57.421Z,1.73
2023-04-16T01:19:26.098Z,1.23
2023-04-16T01:21:56.107Z,1.53
2023-04-16T01:24:24.692Z,1.60
2023-04-16T01:26:53.229Z,1.43
2023-04-16T01:29:21.897Z,1.30
2023-04-16T01:31:52.055Z,2.03
2023-04-16T01:34:27.288Z,1.20
2023-04-16T01:36:57.243Z,2.50
2023-04-16T01:39:26.259Z,1.50
2023-04-16T01:41:54.816Z,1.70
2023-04-16T01:44:23.562Z,1.90
2023-04-16T01:46:52.456Z,2.00
2023-04-16T01:49:23.450Z,2.53
2023-04-16T01:51:53.040Z,1.43
2023-04-16T01:54:23.199Z,1.53
2023-04-16T01:56:51.726Z,2.03
2023-04-16T01:59:20.623Z,1.70
2023-04-16T02:01:49.330Z,1.60
2023-04-16T02:04:18.361Z,1.13
2023-04-16T02:06:47.213Z,1.77
2023-04-16T02:09:15.854Z,1.30
2023-04-16T02:11:46.357Z,1.67
2023-04-16T02:14:14.870Z,1.50
2023-04-16T02:16:44.270Z,1.10
2023-04-16T02:19:33.460Z,1.50
2023-04-16T02:22:02.612Z,1.60
2023-04-16T02:24:31.620Z,2.07
2023-04-16T02:27:04.633Z,2.00
2023-04-16T02:29:33.164Z,1.17
2023-04-16T02:32:09.951Z,1.80
2023-04-16T02:34:40.340Z,1.90
2023-04-16T02:37:09.245Z,1.60
2023-04-16T02:39:37.813Z,1.70
2023-04-16T02:42:07.808Z,1.73
2023-04-16T02:44:36.992Z,1.37
2023-04-16T02:47:05.547Z,1.70
2023-04-16T02:49:35.850Z,1.53
2023-04-16T02:52:04.366Z,2.07
2023-04-16T02:54:32.966Z,1.60
2023-04-16T02:57:02.581Z,2.30
2023-04-16T02:59:32.595Z,1.60
2023-04-16T03:02:01.433Z,2.10
2023-04-16T03:04:30.107Z,2.00
2023-04-16T03:06:58.678Z,1.63
2023-04-16T03:09:27.208Z,2.33
2023-04-16T03:11:56.444Z,1.60
2023-04-16T03:14:25.066Z,1.60
2023-04-16T03:16:55.090Z,2.00
2023-04-16T03:19:23.941Z,2.57
2023-04-16T03:21:52.514Z,2.00
2023-04-16T03:24:21.287Z,1.50
2023-04-16T03:26:50.883Z,1.97
2023-04-16T03:29:20.505Z,2.00
2023-04-16T03:31:49.981Z,1.80
2023-04-16T03:34:19.916Z,1.63
2023-04-16T03:36:48.586Z,1.80
2023-04-16T03:39:17.164Z,1.63
2023-04-16T03:41:45.795Z,1.90
2023-04-16T03:44:14.460Z,1.60
2023-04-16T03:46:43.749Z,1.47
2023-04-16T03:49:12.425Z,1.80
2023-04-16T03:51:42.353Z,1.70
2023-04-16T03:54:10.952Z,1.93
2023-04-16T03:56:41.677Z,1.60
2023-04-16T03:59:10.676Z,1.27
2023-04-16T04:01:39.822Z,1.60
2023-04-16T04:04:09.774Z,1.50
2023-04-16T04:06:39.083Z,2.10
2023-04-16T04:09:09.401Z,1.30
2023-04-16T04:11:38.221Z,1.40
2023-04-16T04:14:06.767Z,1.40
2023-04-16T04:16:35.733Z,1.50
2023-04-16T04:19:04.304Z,1.83
2023-04-16T04:21:33.036Z,1.60
2023-04-16T04:24:01.572Z,1.30
2023-04-16T04:26:33.074Z,1.50
2023-04-16T04:29:01.761Z,1.40
2023-04-16T04:31:31.980Z,1.57
2023-04-16T04:34:00.669Z,1.40
2023-04-16T04:36:29.809Z,1.70
2023-04-16T04:38:58.372Z,1.43
2023-04-16T04:41:28.140Z,1.57
2023-04-16T04:43:58.230Z,1.40
2023-04-16T04:46:27.267Z,1.50
2023-04-16T04:48:55.944Z,1.77
2023-04-16T04:51:24.779Z,1.63
2023-04-16T04:53:53.337Z,2.17
2023-04-16T04:56:22.876Z,0.97
2023-04-16T04:58:52.099Z,1.67
2023-04-16T05:01:23.393Z,1.27
2023-04-16T05:03:52.384Z,1.33
2023-04-16T05:06:20.890Z,1.67
2023-04-16T05:08:49.452Z,1.43
2023-04-16T05:11:18.437Z,1.30
2023-04-16T05:13:47.302Z,1.80
2023-04-16T05:16:15.835Z,1.50
2023-04-16T05:18:46.143Z,1.53
2023-04-16T05:21:14.880Z,1.67
2023-04-16T05:23:43.451Z,1.47
2023-04-16T05:26:12.123Z,1.60
2023-04-16T05:28:40.783Z,1.73
2023-04-16T05:31:09.401Z,1.33
2023-04-16T05:33:38.311Z,1.20
2023-04-16T05:36:08.678Z,1.47
2023-04-16T05:38:37.229Z,1.87
2023-04-16T05:41:05.934Z,1.20
2023-04-16T05:43:34.544Z,1.27
2023-04-16T05:46:03.218Z,1.47
2023-04-16T05:48:31.752Z,1.50
2023-04-16T05:51:00.265Z,1.10
2023-04-16T05:53:30.474Z,1.40
2023-04-16T05:55:59.061Z,1.43
2023-04-16T05:58:27.612Z,1.40
2023-04-16T06:00:56.343Z,1.30
2023-04-16T06:03:25.029Z,1.40
2023-04-16T06:05:53.802Z,1.43
2023-04-16T06:08:22.464Z,1.50
2023-04-16T06:10:52.581Z,1.50
2023-04-16T06:13:21.307Z,1.20
2023-04-16T06:15:50.093Z,1.30
2023-04-16T06:18:18.665Z,1.60
2023-04-16T06:20:47.355Z,1.30
2023-04-16T06:23:15.966Z,1.50
2023-04-16T06:25:44.724Z,1.77
2023-04-16T06:28:14.866Z,1.57
2023-04-16T06:30:44.612Z,1.13
2023-04-16T06:33:13.757Z,1.30
2023-04-16T06:35:42.303Z,1.60
2023-04-16T06:38:11.032Z,1.27
2023-04-16T06:40:39.687Z,1.30
2023-04-16T06:43:08.307Z,1.10
2023-04-16T06:45:38.553Z,1.20
2023-04-16T06:48:07.606Z,1.43
2023-04-16T06:50:36.314Z,1.33
2023-04-16T06:53:04.825Z,1.40
2023-04-16T06:55:33.207Z,1.17
2023-04-16T06:58:01.824Z,1.10
2023-04-16T07:00:30.414Z,1.20
2023-04-16T07:03:02.187Z,1.50
2023-04-16T07:05:30.762Z,1.30
2023-04-16T07:08:00.212Z,1.03
2023-04-16T07:10:28.611Z,1.30
2023-04-16T07:12:56.941Z,1.07
2023-04-16T07:15:25.309Z,1.03
2023-04-16T07:17:53.746Z,1.30
2023-04-16T07:20:23.759Z,1.03
2023-04-16T07:22:52.123Z,1.00
2023-04-16T07:25:20.533Z,1.10
2023-04-16T07:27:49.400Z,1.30
2023-04-16T07:30:17.860Z,1.20
2023-04-16T07:32:46.376Z,0.90
2023-04-16T07:35:14.776Z,0.80
2023-04-16T07:37:44.639Z,0.90
2023-04-16T07:40:13.806Z,1.43
2023-04-16T07:42:42.163Z,1.03
2023-04-16T07:45:11.608Z,2.10
2023-04-16T07:47:39.954Z,1.00
2023-04-16T07:50:09.427Z,1.17
2023-04-16T07:52:38.950Z,1.00
2023-04-16T07:55:09.669Z,1.47
2023-04-16T07:57:38.468Z,1.57
2023-04-16T08:00:08.326Z,1.20
2023-04-16T08:02:42.958Z,1.60
2023-04-16T08:05:12.583Z,2.03
2023-04-16T08:07:41.090Z,1.73
2023-04-16T08:10:11.612Z,2.03
2023-04-16T08:12:40.472Z,2.00
2023-04-16T08:15:09.860Z,1.70
2023-04-16T08:17:38.286Z,1.70
2023-04-16T08:20:09.009Z,2.13
2023-04-16T08:22:38.925Z,2.00
2023-04-16T08:25:08.570Z,1.30
2023-04-16T08:27:38.321Z,2.00
2023-04-16T08:30:08.252Z,1.67
2023-04-16T08:32:36.642Z,1.77
2023-04-16T08:35:05.485Z,1.53
2023-04-16T08:37:33.890Z,1.87
2023-04-16T08:40:02.517Z,2.20
2023-04-16T08:42:33.082Z,1.90
2023-04-16T08:45:09.536Z,2.00
2023-04-16T08:47:38.332Z,2.37
2023-04-16T08:50:07.980Z,1.50
2023-04-16T08:52:43.119Z,2.37
2023-04-16T08:55:14.473Z,2.20
2023-04-16T08:57:48.536Z,2.20
2023-04-16T09:00:18.559Z,2.60
2023-04-16T09:02:47.428Z,2.00
2023-04-16T09:05:18.214Z,2.30
2023-04-16T09:07:47.259Z,2.20
2023-04-16T09:10:16.701Z,1.90
2023-04-16T09:12:45.673Z,2.47
2023-04-16T09:15:15.074Z,2.20
2023-04-16T09:17:44.952Z,2.30
2023-04-16T09:20:13.897Z,2.67
2023-04-16T09:22:46.478Z,2.60
2023-04-16T09:25:14.992Z,1.93
2023-04-16T09:27:43.682Z,2.47
2023-04-16T09:30:26.384Z,2.67
2023-04-16T09:33:16.834Z,2.40
2023-04-16T09:35:51.296Z,2.43
2023-04-16T09:38:20.292Z,2.93
2023-04-16T09:40:49.026Z,2.27
2023-04-16T09:43:19.003Z,2.50
2023-04-16T09:45:51.841Z,2.80
2023-04-16T09:48:32.056Z,2.10
2023-04-16T09:51:01.052Z,3.17
2023-04-16T09:53:31.171Z,2.87
2023-04-16T09:56:00.197Z,3.00
2023-04-16T09:58:29.760Z,2.53
2023-04-16T10:01:01.788Z,2.10
2023-04-16T10:03:35.742Z,2.97
2023-04-16T10:06:09.426Z,3.60
2023-04-16T10:08:37.705Z,3.23
2023-04-16T10:11:06.396Z,3.60
2023-04-16T10:13:34.733Z,2.57
2023-04-16T10:16:04.334Z,3.07
2023-04-16T10:18:34.447Z,2.40
2023-04-16T10:21:03.716Z,2.20
2023-04-16T10:23:32.057Z,2.83
2023-04-16T10:26:01.609Z,2.90
2023-04-16T10:28:30.247Z,3.10
2023-04-16T10:30:59.895Z,2.63
2023-04-16T10:33:30.554Z,2.73
2023-04-16T10:36:14.408Z,2.97
2023-04-16T10:38:46.938Z,3.50
2023-04-16T10:41:15.422Z,3.17
2023-04-16T10:43:47.552Z,3.17
2023-04-16T10:46:20.880Z,3.60
2023-04-16T10:48:50.780Z,3.53
2023-04-16T10:51:29.504Z,3.10
2023-04-16T10:53:58.989Z,2.70
2023-04-16T10:56:28.119Z,3.10
2023-04-16T10:58:57.300Z,4.97
2023-04-16T11:01:33.987Z,3.63
2023-04-16T11:04:03.554Z,3.60
2023-04-16T11:06:33.669Z,3.60
2023-04-16T11:09:05.807Z,4.40
2023-04-16T11:11:40.064Z,4.07
2023-04-16T11:14:12.009Z,4.27
2023-04-16T11:16:42.418Z,3.53
2023-04-16T11:19:18.058Z,4.10
2023-04-16T11:21:48.178Z,3.50
2023-04-16T11:24:16.581Z,6.10
2023-04-16T11:26:44.879Z,4.53
2023-04-16T11:29:15.987Z,4.00
2023-04-16T11:31:50.959Z,4.60
2023-04-16T11:34:19.862Z,3.53
2023-04-16T11:36:51.504Z,4.23
2023-04-16T11:39:20.405Z,3.77
2023-04-16T11:41:50.129Z,4.90
2023-04-16T11:44:23.236Z,3.80
2023-04-16T11:46:52.960Z,4.20
2023-04-16T11:49:28.878Z,4.30
2023-04-16T11:51:59.147Z,4.23
2023-04-16T11:54:27.506Z,5.53
2023-04-16T11:56:55.843Z,6.03
2023-04-16T11:59:24.814Z,4.60
2023-04-16T12:01:55.768Z,4.23
2023-04-16T12:04:25.726Z,4.90
2023-04-16T12:07:11.032Z,3.73
2023-04-16T12:09:41.057Z,4.90
2023-04-16T12:12:27.488Z,4.17
2023-04-16T12:14:57.070Z,4.20
2023-04-16T12:17:26.053Z,3.77
2023-04-16T12:19:59.465Z,4.30
2023-04-16T12:22:31.560Z,4.17
2023-04-16T12:25:02.731Z,4.20
2023-04-16T12:27:49.477Z,6.13
2023-04-16T12:30:22.692Z,4.00
2023-04-16T12:32:56.027Z,5.60
2023-04-16T12:35:32.267Z,4.70
2023-04-16T12:38:03.565Z,3.87
2023-04-16T12:40:32.187Z,4.67
2023-04-16T12:43:00.700Z,4.43
2023-04-16T12:45:31.757Z,6.80
2023-04-16T12:48:00.273Z,5.07
2023-04-16T12:50:29.716Z,5.00
2023-04-16T12:52:59.686Z,4.30
2023-04-16T12:55:29.709Z,4.80
2023-04-16T12:57:58.310Z,4.77
2023-04-16T13:00:27.008Z,4.63
2023-04-16T13:02:55.631Z,4.47
2023-04-16T13:05:24.421Z,5.10
2023-04-16T13:07:53.035Z,4.97
2023-04-16T13:10:23.589Z,6.20
2023-04-16T13:12:53.563Z,5.47
2023-04-16T13:15:22.440Z,4.23
2023-04-16T13:17:50.901Z,4.67
2023-04-16T13:20:19.389Z,5.80
2023-04-16T13:22:48.106Z,5.50
2023-04-16T13:25:16.535Z,5.33
2023-04-16T13:27:44.814Z,4.70
2023-04-16T13:30:15.182Z,6.30
2023-04-16T13:32:43.886Z,5.30
2023-04-16T13:35:12.778Z,5.33
2023-04-16T13:37:42.296Z,5.67
2023-04-16T13:40:11.269Z,5.53
2023-04-16T13:42:39.864Z,5.30
2023-04-16T13:45:09.493Z,5.10
2023-04-16T13:47:42.656Z,5.03
2023-04-16T13:50:11.900Z,5.00
2023-04-16T13:52:40.473Z,5.90
2023-04-16T13:55:10.103Z,5.50
2023-04-16T13:57:38.468Z,4.67
2023-04-16T14:00:11.843Z,5.40
2023-04-16T14:02:46.068Z,5.37
2023-04-16T14:05:14.484Z,6.30
2023-04-16T14:07:42.869Z,6.00
2023-04-16T14:10:12.160Z,5.47
2023-04-16T14:12:40.963Z,6.17
2023-04-16T14:15:10.605Z,7.03
2023-04-16T14:17:39.188Z,5.77
2023-04-16T14:20:10.562Z,6.13
2023-04-16T14:22:39.094Z,5.57
2023-04-16T14:25:08.032Z,5.93
2023-04-16T14:27:36.522Z,5.13
2023-04-16T14:30:05.546Z,6.30
2023-04-16T14:32:34.035Z,5.60
2023-04-16T14:35:02.671Z,6.13
2023-04-16T14:37:35.781Z,6.27
2023-04-16T14:40:07.975Z,7.00
2023-04-16T14:42:37.811Z,5.23
2023-04-16T14:45:07.586Z,7.53
2023-04-16T14:47:36.394Z,6.30
2023-04-16T14:50:05.517Z,6.00
2023-04-16T14:52:35.590Z,7.03
2023-04-16T14:55:05.482Z,6.77
2023-04-16T14:57:34.513Z,6.93
2023-04-16T15:00:07.628Z,6.33
2023-04-16T15:02:36.295Z,6.47
2023-04-16T15:05:04.974Z,7.30
2023-04-16T15:07:34.869Z,6.03
2023-04-16T15:10:03.275Z,6.97
2023-04-16T15:12:32.572Z,7.27
2023-04-16T15:15:00.911Z,6.33
2023-04-16T15:17:32.338Z,6.70
2023-04-16T15:20:04.773Z,7.10
2023-04-16T15:22:35.925Z,7.43
2023-04-16T15:25:04.872Z,6.33
2023-04-16T15:27:33.415Z,7.80
2023-04-16T15:30:02.084Z,7.07
2023-04-16T15:32:30.621Z,7.87
2023-04-16T15:34:59.921Z,7.00
2023-04-16T15:37:28.521Z,6.13
2023-04-16T15:39:58.445Z,7.63
2023-04-16T15:42:27.149Z,8.00
2023-04-16T15:44:55.466Z,6.07
2023-04-16T15:47:23.912Z,6.80
2023-04-16T15:49:52.310Z,5.70
2023-04-16T15:52:21.030Z,6.53
2023-04-16T15:54:50.171Z,6.77
2023-04-16T15:57:20.011Z,6.63
2023-04-16T16:00:03.146Z,5.77
2023-04-16T16:02:34.542Z,6.70
2023-04-16T16:05:03.388Z,6.30
2023-04-16T16:07:31.962Z,7.73
2023-04-16T16:10:00.750Z,6.93
2023-04-16T16:12:31.254Z,6.57
2023-04-16T16:15:02.216Z,6.87
2023-04-16T16:17:31.229Z,7.30
2023-04-16T16:19:59.891Z,5.97
2023-04-16T16:22:28.594Z,7.30
2023-04-16T16:24:57.684Z,5.47
2023-04-16T16:27:26.063Z,7.00
2023-04-16T16:29:55.905Z,6.57
2023-04-16T16:32:24.309Z,6.83
2023-04-16T16:34:52.714Z,6.30
2023-04-16T16:37:21.160Z,6.73
2023-04-16T16:39:49.462Z,5.83
2023-04-16T16:42:18.895Z,6.60
2023-04-16T16:44:48.975Z,6.87
2023-04-16T16:47:18.702Z,6.53
2023-04-16T16:49:47.129Z,7.30
2023-04-16T16:52:15.846Z,6.90
2023-04-16T16:54:44.236Z,6.93
2023-04-16T16:57:13.748Z,6.70
2023-04-16T16:59:42.280Z,6.87
2023-04-16T17:02:10.712Z,5.90
2023-04-16T17:04:40.773Z,5.97
2023-04-16T17:07:09.277Z,6.43
2023-04-16T17:09:38.636Z,7.03
2023-04-16T17:12:07.815Z,6.80
2023-04-16T17:14:36.218Z,7.10
2023-04-16T17:17:04.596Z,6.63
2023-04-16T17:19:36.263Z,8.00
2023-04-16T17:22:06.587Z,5.73
2023-04-16T17:24:35.061Z,6.77
2023-04-16T17:27:04.243Z,6.47
2023-04-16T17:29:32.731Z,5.60
2023-04-16T17:32:01.116Z,6.80
2023-04-16T17:34:29.658Z,6.20
2023-04-16T17:36:58.068Z,7.60
2023-04-16T17:39:28.229Z,8.07
2023-04-16T17:41:58.672Z,6.70
2023-04-16T17:44:28.067Z,7.10
2023-04-16T17:46:56.532Z,6.40
2023-04-16T17:49:25.286Z,7.77
2023-04-16T17:51:54.859Z,6.70
2023-04-16T17:54:23.183Z,6.57
2023-04-16T17:56:52.902Z,6.63
2023-04-16T17:59:21.278Z,7.07
2023-04-16T18:01:49.842Z,6.20
2023-04-16T18:04:18.794Z,6.53
2023-04-16T18:06:47.825Z,6.90
2023-04-16T18:09:16.195Z,6.60
2023-04-16T18:11:44.564Z,6.27
2023-04-16T18:14:16.954Z,5.90
2023-04-16T18:16:47.932Z,6.30
2023-04-16T18:19:17.103Z,6.50
2023-04-16T18:21:45.585Z,7.00
2023-04-16T18:24:15.224Z,6.53
2023-04-16T18:26:46.835Z,6.60
2023-04-16T18:29:17.978Z,6.43
2023-04-16T18:31:46.605Z,7.30
2023-04-16T18:34:15.116Z,6.27
2023-04-16T18:36:43.408Z,7.17
2023-04-16T18:39:11.782Z,7.07
2023-04-16T18:41:40.727Z,6.50
2023-04-16T18:44:10.756Z,6.20
2023-04-16T18:46:40.588Z,7.00
2023-04-16T18:49:09.317Z,6.37
2023-04-16T18:51:37.863Z,5.90
2023-04-16T18:54:06.352Z,6.50
2023-04-16T18:56:34.704Z,6.60
2023-04-16T18:59:03.277Z,6.20
2023-04-16T19:01:31.642Z,7.30
2023-04-16T19:04:01.641Z,6.60
2023-04-16T19:06:30.060Z,6.83
2023-04-16T19:08:58.328Z,7.00
2023-04-16T19:11:27.124Z,6.17
2023-04-16T19:13:55.725Z,6.27
2023-04-16T19:16:24.182Z,5.93
2023-04-16T19:18:52.592Z,5.90
2023-04-16T19:21:22.471Z,6.30
2023-04-16T19:23:50.882Z,5.50
2023-04-16T19:26:19.231Z,5.70
2023-04-16T19:28:47.555Z,6.03
2023-04-16T19:31:15.988Z,7.20
2023-04-16T19:33:44.317Z,5.50
2023-04-16T19:36:12.639Z,6.10
2023-04-16T19:38:42.377Z,5.93
2023-04-16T19:41:10.775Z,6.00
2023-04-16T19:43:39.158Z,6.17
2023-04-16T19:46:07.615Z,6.43
2023-04-16T19:48:36.458Z,5.50
2023-04-16T19:51:05.723Z,6.63
2023-04-16T19:53:34.473Z,6.80
2023-04-16T19:56:04.458Z,5.43
2023-04-16T19:58:32.816Z,6.50
2023-04-16T20:01:01.221Z,5.07
2023-04-16T20:03:29.601Z,6.20
2023-04-16T20:05:58.026Z,5.23
2023-04-16T20:08:26.664Z,5.90
2023-04-16T20:10:55.029Z,5.67
2023-04-16T20:13:24.818Z,7.13
2023-04-16T20:15:53.824Z,6.13
2023-04-16T20:18:22.287Z,5.60
2023-04-16T20:20:50.663Z,5.00
2023-04-16T20:23:19.087Z,6.17
2023-04-16T20:25:47.745Z,6.40
2023-04-16T20:28:18.225Z,7.03
2023-04-16T20:30:48.046Z,6.60
2023-04-16T20:33:16.457Z,5.77
2023-04-16T20:35:44.866Z,5.47
2023-04-16T20:38:13.417Z,5.70
2023-04-16T20:40:41.967Z,5.83
2023-04-16T20:43:14.451Z,5.83
2023-04-16T20:45:45.982Z,5.73
2023-04-16T20:48:15.731Z,5.20
2023-04-16T20:50:44.187Z,6.00
2023-04-16T20:53:13.072Z,6.07
2023-04-16T20:55:43.916Z,5.87
2023-04-16T20:58:12.306Z,5.73
2023-04-16T21:00:40.784Z,5.47
2023-04-16T21:03:09.337Z,5.00
2023-04-16T21:05:39.243Z,5.93
2023-04-16T21:08:07.984Z,5.87
2023-04-16T21:10:36.408Z,5.40
2023-04-16T21:13:04.781Z,5.70
2023-04-16T21:15:34.708Z,5.60
2023-04-16T21:18:03.197Z,5.37
2023-04-16T21:20:31.697Z,5.40
2023-04-16T21:23:02.541Z,5.07
2023-04-16T21:25:31.147Z,5.80
2023-04-16T21:27:59.554Z,4.77
2023-04-16T21:30:27.873Z,5.10
2023-04-16T21:32:56.402Z,5.77
2023-04-16T21:35:24.851Z,5.70
2023-04-16T21:37:53.190Z,6.03
2023-04-16T21:40:23.057Z,6.70
2023-04-16T21:42:51.342Z,6.20
2023-04-16T21:45:19.814Z,6.37
2023-04-16T21:47:48.158Z,5.90
2023-04-16T21:50:16.554Z,5.70
2023-04-16T21:52:46.081Z,5.23
2023-04-16T21:55:14.984Z,5.50
2023-04-16T21:57:44.661Z,4.70
2023-04-16T22:00:14.480Z,5.90
2023-04-16T22:02:43.459Z,4.97
2023-04-16T22:05:12.250Z,5.27
2023-04-16T22:07:40.625Z,5.10
2023-04-16T22:10:11.033Z,5.20
2023-04-16T22:12:40.165Z,6.37
2023-04-16T22:15:10.864Z,5.60
2023-04-16T22:17:39.358Z,5.43
2023-04-16T22:20:09.439Z,5.70
2023-04-16T22:22:37.832Z,6.47
2023-04-16T22:25:06.967Z,5.53
2023-04-16T22:27:35.463Z,5.73
2023-04-16T22:30:04.173Z,5.30
2023-04-16T22:32:34.239Z,4.50
2023-04-16T22:35:03.346Z,6.07
2023-04-16T22:37:31.683Z,5.33
2023-04-16T22:40:00.049Z,6.40
2023-04-16T22:42:28.716Z,6.13
2023-04-16T22:44:57.662Z,5.70
2023-04-16T22:47:25.949Z,5.63
2023-04-16T22:49:55.614Z,5.80
2023-04-16T22:52:24.092Z,6.43
2023-04-16T22:54:52.443Z,6.17
2023-04-16T22:57:24.837Z,5.40
2023-04-16T22:59:53.667Z,5.50
2023-04-16T23:02:22.480Z,5.63
2023-04-16T23:04:50.948Z,5.23
2023-04-16T23:07:20.921Z,4.93
2023-04-16T23:09:49.265Z,5.70
2023-04-16T23:12:17.747Z,6.03
2023-04-16T23:14:46.897Z,5.23
2023-04-16T23:17:15.350Z,5.60
2023-04-16T23:19:43.769Z,6.10
2023-04-16T23:22:12.354Z,6.47
2023-04-16T23:24:42.080Z,6.10
2023-04-16T23:27:10.716Z,5.07
2023-04-16T23:29:39.115Z,5.13
2023-04-16T23:32:07.547Z,6.03
2023-04-16T23:34:35.906Z,4.97
2023-04-16T23:37:04.204Z,5.90
2023-04-16T23:39:32.519Z,5.40
2023-04-16T23:42:02.379Z,5.13
2023-04-16T23:44:30.818Z,4.80
2023-04-16T23:46:59.469Z,5.20
2023-04-16T23:49:27.896Z,5.60
2023-04-16T23:51:56.273Z,6.63
2023-04-16T23:54:24.734Z,5.50
2023-04-16T23:56:53.072Z,6.13
2023-04-16T23:59:22.899Z,5.90
